Time;durP1;ratioP1;P1;durP2;ratioP2;P2;SDS_P1;SDS_P2;PMS_P1;PMS_P2;Temp;Humidity;BMP_temperature;BMP_pressure;BME280_temperature;BME280_humidity;BME280_pressure;Samples;Min_cycle;Max_cycle;Signal;HPM_P1;HPM_P2
2022/05/22 00:00:25;;;;;;;5.30;2.30;;;16.40;50.30;;;;;;4942824;28;20407;-49
2022/05/22 00:02:53;;;;;;;6.38;2.17;;;16.40;50.40;;;;;;4945120;28;20502;-45
2022/05/22 00:05:24;;;;;;;8.25;2.20;;;16.40;50.50;;;;;;4946534;28;20051;-45
2022/05/22 00:07:51;;;;;;;5.80;2.42;;;16.40;50.70;;;;;;4942540;28;20048;-49
2022/05/22 00:10:21;;;;;;;4.72;2.40;;;16.40;50.60;;;;;;4945641;29;20063;-47
2022/05/22 00:12:48;;;;;;;8.27;2.92;;;16.40;50.70;;;;;;4944659;28;20058;-45
2022/05/22 00:15:18;;;;;;;5.97;2.40;;;16.40;50.90;;;;;;4944874;29;20066;-45
2022/05/22 00:17:46;;;;;;;4.32;1.95;;;16.40;51.10;;;;;;4941902;28;20055;-46
2022/05/22 00:20:14;;;;;;;6.68;2.10;;;16.40;51.20;;;;;;4944551;28;20085;-47
2022/05/22 00:22:42;;;;;;;4.13;2.22;;;16.40;51.30;;;;;;4945347;28;20062;-49
2022/05/22 00:25:11;;;;;;;8.93;2.20;;;16.40;51.30;;;;;;4942629;28;20055;-48
2022/05/22 00:27:40;;;;;;;5.32;2.35;;;16.40;51.40;;;;;;4943456;28;20507;-46
2022/05/22 00:30:08;;;;;;;5.70;2.25;;;16.40;51.50;;;;;;4944286;28;20062;-46
2022/05/22 00:32:37;;;;;;;4.30;2.33;;;16.40;51.30;;;;;;4944655;28;20055;-47
2022/05/22 00:35:06;;;;;;;3.83;1.90;;;16.40;51.20;;;;;;4942683;28;20059;-46
2022/05/22 00:37:33;;;;;;;6.20;2.45;;;16.40;51.20;;;;;;4944489;28;20059;-49
2022/05/22 00:40:01;;;;;;;4.88;2.22;;;16.40;51.20;;;;;;4944526;28;20505;-46
2022/05/22 00:42:29;;;;;;;4.68;2.20;;;16.40;51.30;;;;;;4944322;28;20430;-46
2022/05/22 00:44:56;;;;;;;8.48;2.63;;;16.40;51.20;;;;;;4943415;28;20051;-47
2022/05/22 00:47:24;;;;;;;8.65;2.78;;;16.30;51.30;;;;;;4940630;28;20086;-45
2022/05/22 00:49:59;;;;;;;4.93;2.30;;;16.30;51.20;;;;;;4943825;28;20055;-46
2022/05/22 00:52:33;;;;;;;7.85;2.33;;;16.30;51.40;;;;;;4941972;28;20047;-48
2022/05/22 00:55:05;;;;;;;4.10;2.50;;;16.30;51.30;;;;;;4944710;29;20066;-48
2022/05/22 00:57:36;;;;;;;6.63;2.30;;;16.30;51.20;;;;;;4943223;28;20051;-47
2022/05/22 01:00:09;;;;;;;9.50;2.33;;;16.20;51.30;;;;;;4943377;28;20058;-47
2022/05/22 01:05:19;;;;;;;7.40;2.50;;;16.20;51.30;;;;;;4945190;28;20043;-49
2022/05/22 01:07:47;;;;;;;6.38;2.60;;;16.10;51.40;;;;;;4940120;28;20051;-50
2022/05/22 01:10:15;;;;;;;7.07;2.55;;;16.10;51.50;;;;;;4944266;28;20066;-49
2022/05/22 01:12:45;;;;;;;7.40;2.58;;;16.10;51.60;;;;;;4943823;28;20059;-48
2022/05/22 01:15:15;;;;;;;6.18;2.85;;;16.00;51.70;;;;;;4944096;28;20070;-47
2022/05/22 01:17:44;;;;;;;4.28;2.20;;;16.10;51.90;;;;;;4939973;28;20047;-51
2022/05/22 01:20:12;;;;;;;8.07;1.90;;;16.00;51.90;;;;;;4943021;28;20551;-47
2022/05/22 01:22:42;;;;;;;7.40;2.40;;;16.00;52.00;;;;;;4943800;28;20051;-45
2022/05/22 01:25:10;;;;;;;6.35;2.35;;;16.00;52.00;;;;;;4943555;28;20066;-47
2022/05/22 01:27:42;;;;;;;3.33;1.95;;;15.90;52.00;;;;;;4941372;28;20523;-46
2022/05/22 01:30:14;;;;;;;5.00;2.33;;;15.90;52.00;;;;;;4942811;28;20051;-46
2022/05/22 01:32:45;;;;;;;5.63;2.30;;;15.90;52.20;;;;;;4941737;29;20051;-48
2022/05/22 01:35:15;;;;;;;4.70;2.10;;;15.90;52.20;;;;;;4945186;28;20055;-47
2022/05/22 01:37:45;;;;;;;9.52;2.40;;;15.80;52.10;;;;;;4942020;28;20055;-50
2022/05/22 01:40:13;;;;;;;6.30;2.20;;;15.80;52.20;;;;;;4939597;28;20063;-47
2022/05/22 01:42:41;;;;;;;7.22;2.30;;;15.80;52.20;;;;;;4943420;28;20052;-46
2022/05/22 01:45:11;;;;;;;6.82;2.40;;;15.80;52.30;;;;;;4944285;28;20530;-48
2022/05/22 01:47:40;;;;;;;5.07;2.17;;;15.70;52.40;;;;;;4940418;28;20062;-49
2022/05/22 01:50:08;;;;;;;5.05;2.10;;;15.70;52.50;;;;;;4942393;28;20622;-48
2022/05/22 01:52:36;;;;;;;3.40;1.98;;;15.70;52.50;;;;;;4943285;28;20055;-49
2022/05/22 01:55:06;;;;;;;3.63;2.35;;;15.70;52.60;;;;;;4943731;28;20054;-51
2022/05/22 01:57:33;;;;;;;4.97;2.47;;;15.70;52.70;;;;;;4940996;28;20066;-46
2022/05/22 02:00:01;;;;;;;4.40;2.45;;;15.70;52.80;;;;;;4941277;28;20047;-46
2022/05/22 02:02:28;;;;;;;4.32;2.20;;;15.60;52.80;;;;;;4941390;28;20082;-46
2022/05/22 02:04:56;;;;;;;7.45;2.85;;;15.60;52.80;;;;;;4942196;29;20838;-47
2022/05/22 02:10:10;;;;;;;5.28;2.15;;;15.60;52.90;;;;;;4947981;28;20050;-51
2022/05/22 02:12:37;;;;;;;5.68;2.30;;;15.60;53.00;;;;;;4943848;28;20055;-48
2022/05/22 02:15:06;;;;;;;5.70;2.33;;;15.60;53.10;;;;;;4942454;28;20059;-49
2022/05/22 02:17:34;;;;;;;5.28;2.35;;;15.50;53.10;;;;;;4935333;28;20051;-50
2022/05/22 02:20:01;;;;;;;5.65;2.58;;;15.50;53.10;;;;;;4933431;28;20062;-48
2022/05/22 02:22:29;;;;;;;4.00;2.35;;;15.50;53.20;;;;;;4941977;28;20062;-46
2022/05/22 02:24:56;;;;;;;7.32;2.92;;;15.50;53.30;;;;;;4942105;28;20058;-47
2022/05/22 02:27:25;;;;;;;5.57;2.60;;;15.50;53.50;;;;;;4938506;28;20055;-47
2022/05/22 02:29:52;;;;;;;6.13;2.53;;;15.50;53.60;;;;;;4939823;29;20526;-47
2022/05/22 02:32:20;;;;;;;4.95;2.90;;;15.50;53.50;;;;;;4938502;28;20063;-47
2022/05/22 02:34:47;;;;;;;3.70;1.95;;;15.50;53.60;;;;;;4942906;28;20055;-46
2022/05/22 02:37:15;;;;;;;6.97;3.08;;;15.50;53.60;;;;;;4943829;28;20074;-47
2022/05/22 02:39:43;;;;;;;3.80;2.53;;;15.50;53.80;;;;;;4940955;28;20634;-47
2022/05/22 02:42:11;;;;;;;9.20;2.72;;;15.50;53.80;;;;;;4942636;28;20058;-47
2022/05/22 02:44:39;;;;;;;6.30;2.72;;;15.40;53.70;;;;;;4943874;28;20062;-48
2022/05/22 02:47:07;;;;;;;17.75;4.03;;;15.40;53.70;;;;;;4943302;28;20510;-46
2022/05/22 02:49:36;;;;;;;7.97;2.75;;;15.40;53.70;;;;;;4944627;28;20518;-46
2022/05/22 02:52:04;;;;;;;4.93;2.70;;;15.40;53.80;;;;;;4941537;28;20059;-49
2022/05/22 02:54:32;;;;;;;6.10;2.92;;;15.40;53.80;;;;;;4936712;28;20043;-48
2022/05/22 02:57:04;;;;;;;6.82;2.22;;;15.40;53.80;;;;;;4937805;28;20054;-46
2022/05/22 02:59:34;;;;;;;5.75;2.97;;;15.40;53.90;;;;;;4942203;28;20059;-51
2022/05/22 03:02:03;;;;;;;5.03;2.67;;;15.30;53.90;;;;;;4939777;29;20059;-47
2022/05/22 03:04:32;;;;;;;6.25;2.90;;;15.30;53.90;;;;;;4941820;28;20055;-50
2022/05/22 03:06:59;;;;;;;7.15;2.30;;;15.30;53.90;;;;;;4941903;28;20120;-49
2022/05/22 03:09:27;;;;;;;9.68;2.60;;;15.20;53.90;;;;;;4938390;28;20074;-50
2022/05/22 03:11:55;;;;;;;6.97;2.83;;;15.20;53.90;;;;;;4941209;28;20059;-47
2022/05/22 03:14:22;;;;;;;6.10;3.00;;;15.20;53.90;;;;;;4944130;28;20052;-49
2022/05/22 03:16:50;;;;;;;3.92;2.58;;;15.20;53.90;;;;;;4936063;28;20074;-47
2022/05/22 03:19:19;;;;;;;6.43;2.60;;;15.10;53.90;;;;;;4939931;28;20078;-47
2022/05/22 03:21:46;;;;;;;4.22;2.67;;;15.10;54.00;;;;;;4943224;28;20063;-47
2022/05/22 03:24:14;;;;;;;6.68;2.90;;;15.10;54.10;;;;;;4938879;28;20052;-51
2022/05/22 03:26:41;;;;;;;5.07;2.80;;;15.00;54.10;;;;;;4939528;28;20051;-47
2022/05/22 03:29:09;;;;;;;4.53;2.80;;;15.00;54.20;;;;;;4942107;28;20058;-47
2022/05/22 03:31:37;;;;;;;8.20;2.95;;;15.00;54.30;;;;;;4939639;28;20062;-47
2022/05/22 03:34:05;;;;;;;5.65;3.05;;;14.90;54.30;;;;;;4942957;28;20059;-46
2022/05/22 03:36:36;;;;;;;5.68;2.83;;;14.90;54.40;;;;;;4941485;28;20051;-48
2022/05/22 03:39:03;;;;;;;5.13;2.90;;;14.90;54.50;;;;;;4939784;28;20047;-49
2022/05/22 03:41:32;;;;;;;8.68;3.20;;;14.90;54.50;;;;;;4938942;28;20059;-49
2022/05/22 03:43:59;;;;;;;7.10;2.80;;;14.90;54.70;;;;;;4943573;28;20063;-47
2022/05/22 03:46:27;;;;;;;5.07;2.97;;;14.90;54.70;;;;;;4943391;28;20063;-48
2022/05/22 03:48:54;;;;;;;8.35;3.38;;;14.90;54.80;;;;;;4939735;28;20059;-49
2022/05/22 03:51:22;;;;;;;6.68;2.80;;;14.90;54.80;;;;;;4943260;28;20055;-46
2022/05/22 03:53:51;;;;;;;4.65;2.60;;;14.80;54.90;;;;;;4943008;28;20062;-47
2022/05/22 03:56:20;;;;;;;6.00;2.67;;;14.80;55.00;;;;;;4944654;28;20055;-48
2022/05/22 03:58:48;;;;;;;8.18;3.38;;;14.80;55.00;;;;;;4940486;28;20388;-48
2022/05/22 04:01:15;;;;;;;8.60;3.20;;;14.80;55.00;;;;;;4942323;28;20059;-46
2022/05/22 04:03:43;;;;;;;5.47;2.78;;;14.80;55.10;;;;;;4945218;28;20423;-50
2022/05/22 04:06:12;;;;;;;6.80;2.80;;;14.80;55.10;;;;;;4946228;28;20051;-52
2022/05/22 04:08:39;;;;;;;7.85;2.67;;;14.80;55.20;;;;;;4945753;28;20082;-48
2022/05/22 04:11:11;;;;;;;4.60;2.50;;;14.80;55.30;;;;;;4945772;28;20055;-48
2022/05/22 04:13:39;;;;;;;4.35;2.80;;;14.80;55.40;;;;;;4946862;28;20055;-48
2022/05/22 04:16:06;;;;;;;7.05;2.65;;;14.90;55.40;;;;;;4943298;28;20055;-46
2022/05/22 04:18:35;;;;;;;6.32;3.00;;;14.90;55.40;;;;;;4938557;28;20878;-51
2022/05/22 04:21:03;;;;;;;3.63;2.47;;;14.90;55.40;;;;;;4942555;28;20052;-46
2022/05/22 04:26:16;;;;;;;7.07;2.90;;;14.90;55.40;;;;;;4947297;28;20054;-47
2022/05/22 04:28:44;;;;;;;6.00;2.80;;;14.90;55.50;;;;;;4942469;28;20063;-46
2022/05/22 04:31:11;;;;;;;4.70;2.78;;;14.90;55.40;;;;;;4943070;28;20086;-45
2022/05/22 04:33:39;;;;;;;6.25;2.92;;;14.90;55.50;;;;;;4942101;28;20063;-46
2022/05/22 04:36:07;;;;;;;9.93;3.33;;;14.90;55.60;;;;;;4944531;28;20051;-47
2022/05/22 04:38:34;;;;;;;6.13;3.45;;;15.00;55.70;;;;;;4941190;28;20051;-47
2022/05/22 04:41:03;;;;;;;8.10;3.30;;;14.90;55.80;;;;;;4943663;28;20075;-49
2022/05/22 04:43:33;;;;;;;5.38;3.38;;;14.90;55.80;;;;;;4943215;28;20066;-45
2022/05/22 04:46:00;;;;;;;7.38;3.35;;;14.90;55.90;;;;;;4937438;28;20054;-48
2022/05/22 04:48:29;;;;;;;7.28;3.03;;;15.00;55.90;;;;;;4941817;28;20392;-48
2022/05/22 04:50:56;;;;;;;8.80;3.30;;;14.90;55.90;;;;;;4941308;28;20054;-47
2022/05/22 04:53:26;;;;;;;9.73;4.15;;;15.00;56.00;;;;;;4942406;28;20058;-47
2022/05/22 04:55:53;;;;;;;5.28;3.10;;;15.00;56.10;;;;;;4940295;28;20055;-46
2022/05/22 04:58:21;;;;;;;7.40;3.33;;;15.00;56.10;;;;;;4936417;28;20484;-48
2022/05/22 05:00:50;;;;;;;6.47;2.78;;;15.00;56.10;;;;;;4938282;28;20059;-46
2022/05/22 05:03:18;;;;;;;4.85;2.90;;;15.10;56.20;;;;;;4942661;28;20063;-48
2022/05/22 05:05:54;;;;;;;5.35;2.83;;;15.10;56.30;;;;;;4941717;28;20059;-47
2022/05/22 05:08:21;;;;;;;6.50;2.90;;;15.10;56.50;;;;;;4937131;28;20047;-46
2022/05/22 05:10:48;;;;;;;5.70;3.00;;;15.10;56.40;;;;;;4938137;28;20059;-47
2022/05/22 05:13:16;;;;;;;6.45;3.20;;;15.20;56.50;;;;;;4941651;28;20051;-47
2022/05/22 05:15:43;;;;;;;6.55;3.30;;;15.20;56.70;;;;;;4939083;28;20626;-46
2022/05/22 05:18:13;;;;;;;6.65;3.20;;;15.20;56.70;;;;;;4939826;28;20059;-50
2022/05/22 05:20:41;;;;;;;8.43;3.92;;;15.20;56.70;;;;;;4940783;28;20066;-46
2022/05/22 05:23:09;;;;;;;4.30;2.65;;;15.30;56.80;;;;;;4940589;28;20059;-51
2022/05/22 05:25:36;;;;;;;7.03;2.97;;;15.30;56.70;;;;;;4942749;28;20051;-48
2022/05/22 05:28:04;;;;;;;8.10;3.83;;;15.30;56.70;;;;;;4943013;28;20054;-47
2022/05/22 05:30:31;;;;;;;6.30;3.05;;;15.40;56.90;;;;;;4941816;28;20055;-47
2022/05/22 05:32:59;;;;;;;6.68;2.80;;;15.40;56.80;;;;;;4941847;28;20059;-49
2022/05/22 05:35:27;;;;;;;7.80;3.40;;;15.50;56.90;;;;;;4944724;28;20686;-47
2022/05/22 05:37:55;;;;;;;4.70;3.10;;;15.50;56.90;;;;;;4940514;28;20501;-49
2022/05/22 05:40:22;;;;;;;6.05;3.38;;;15.60;56.90;;;;;;4938036;28;20063;-48
2022/05/22 05:42:50;;;;;;;5.32;2.67;;;15.60;57.00;;;;;;4940943;28;20055;-51
2022/05/22 05:45:18;;;;;;;6.40;3.30;;;15.70;57.00;;;;;;4940134;28;20249;-51
2022/05/22 05:47:47;;;;;;;9.38;3.42;;;15.70;57.00;;;;;;4938536;28;20062;-48
2022/05/22 05:50:16;;;;;;;5.97;3.20;;;15.80;57.10;;;;;;4942752;28;20058;-46
2022/05/22 05:52:45;;;;;;;6.20;3.08;;;15.80;57.10;;;;;;4943114;28;20532;-46
2022/05/22 05:55:14;;;;;;;6.75;3.20;;;15.90;57.30;;;;;;4942016;28;20092;-52
2022/05/22 05:57:41;;;;;;;5.03;2.67;;;15.90;57.30;;;;;;4937404;28;20055;-53
2022/05/22 06:00:11;;;;;;;6.35;2.50;;;16.00;57.30;;;;;;4941516;28;20059;-52
2022/05/22 06:02:39;;;;;;;7.82;3.35;;;16.10;57.40;;;;;;4937134;28;20534;-47
2022/05/22 06:05:07;;;;;;;5.00;3.08;;;16.20;57.40;;;;;;4944229;28;20514;-49
2022/05/22 06:07:35;;;;;;;7.60;3.67;;;16.30;57.30;;;;;;4943940;28;20515;-47
2022/05/22 06:10:04;;;;;;;8.35;3.50;;;16.30;57.20;;;;;;4944414;29;20066;-46
2022/05/22 06:12:32;;;;;;;6.22;3.20;;;16.40;57.10;;;;;;4944597;28;20059;-50
2022/05/22 06:14:59;;;;;;;7.20;2.90;;;16.50;57.10;;;;;;4944171;28;20055;-50
2022/05/22 06:17:31;;;;;;;6.70;3.03;;;16.60;57.10;;;;;;4941282;28;20503;-51
2022/05/22 06:19:58;;;;;;;5.10;2.72;;;16.60;57.00;;;;;;4943602;28;20055;-48
2022/05/22 06:22:29;;;;;;;7.28;2.72;;;16.70;56.90;;;;;;4944866;28;20055;-46
2022/05/22 06:24:57;;;;;;;8.55;3.40;;;16.90;56.80;;;;;;4944093;28;20071;-47
2022/05/22 06:27:26;;;;;;;9.88;3.55;;;16.90;56.60;;;;;;4942612;28;20051;-47
2022/05/22 06:29:54;;;;;;;5.95;3.10;;;17.00;56.60;;;;;;4944166;29;20058;-48
2022/05/22 06:32:22;;;;;;;6.18;2.75;;;17.10;56.50;;;;;;4942964;28;20418;-46
2022/05/22 06:34:50;;;;;;;4.05;2.58;;;17.20;56.40;;;;;;4944650;28;20061;-46
2022/05/22 06:37:19;;;;;;;10.38;3.72;;;17.20;56.20;;;;;;4943299;28;20059;-46
2022/05/22 06:39:52;;;;;;;7.90;3.40;;;17.30;56.10;;;;;;4942695;28;20423;-48
2022/05/22 06:42:22;;;;;;;10.65;3.45;;;17.40;56.00;;;;;;4944028;28;20074;-47
2022/05/22 06:44:59;;;;;;;8.90;3.03;;;17.40;55.90;;;;;;4943812;28;20063;-49
2022/05/22 06:47:29;;;;;;;5.88;3.15;;;17.50;56.00;;;;;;4942058;28;20479;-47
2022/05/22 06:49:58;;;;;;;7.13;2.80;;;17.60;56.00;;;;;;4944262;28;20510;-49
2022/05/22 06:52:26;;;;;;;5.70;2.38;;;17.60;56.00;;;;;;4944708;28;20063;-46
2022/05/22 06:54:54;;;;;;;7.03;2.83;;;17.70;56.00;;;;;;4943785;28;20055;-50
2022/05/22 06:57:22;;;;;;;4.32;2.50;;;17.70;55.90;;;;;;4940210;28;20051;-48
2022/05/22 06:59:53;;;;;;;5.28;2.35;;;17.80;56.00;;;;;;4940059;28;20063;-49
2022/05/22 07:02:23;;;;;;;5.57;3.00;;;17.80;56.10;;;;;;4938970;28;20388;-48
2022/05/22 07:04:50;;;;;;;7.40;3.20;;;17.90;56.10;;;;;;4943137;29;20415;-52
2022/05/22 07:07:18;;;;;;;5.82;2.47;;;18.00;56.00;;;;;;4941213;28;20055;-49
2022/05/22 07:09:45;;;;;;;5.35;2.45;;;18.00;56.00;;;;;;4940911;28;20059;-48
2022/05/22 07:12:14;;;;;;;5.78;2.75;;;18.10;56.10;;;;;;4943016;28;20078;-52
2022/05/22 07:14:42;;;;;;;5.38;2.58;;;18.10;56.40;;;;;;4943459;28;20059;-48
2022/05/22 07:17:11;;;;;;;6.90;2.78;;;18.20;56.20;;;;;;4940897;28;20047;-51
2022/05/22 07:19:43;;;;;;;9.45;2.75;;;18.20;55.90;;;;;;4942513;28;20059;-47
2022/05/22 07:22:10;;;;;;;5.90;2.53;;;18.30;55.90;;;;;;4943401;28;20062;-51
2022/05/22 07:24:38;;;;;;;4.15;2.17;;;18.40;55.90;;;;;;4943900;28;20055;-48
2022/05/22 07:27:06;;;;;;;8.90;2.90;;;18.40;55.90;;;;;;4940893;28;20541;-48
2022/05/22 07:29:42;;;;;;;4.75;2.45;;;18.40;56.10;;;;;;4941828;28;20059;-50
2022/05/22 07:32:12;;;;;;;4.70;2.17;;;18.50;56.10;;;;;;4942415;28;20076;-51
2022/05/22 07:34:54;;;;;;;5.65;2.42;;;18.60;55.80;;;;;;4943189;28;20221;-47
2022/05/22 07:37:25;;;;;;;6.05;2.50;;;18.60;55.80;;;;;;4955213;28;20059;-49
2022/05/22 07:39:58;;;;;;;7.68;2.92;;;18.70;56.20;;;;;;4946614;29;20055;-52
2022/05/22 07:42:30;;;;;;;6.75;2.65;;;18.80;55.70;;;;;;4947029;28;20066;-46
2022/05/22 07:44:59;;;;;;;5.15;2.30;;;18.80;55.70;;;;;;4947419;28;20051;-47
2022/05/22 07:47:37;;;;;;;4.28;2.17;;;18.90;55.60;;;;;;4942268;28;20051;-50
2022/05/22 07:50:21;;;;;;;5.32;2.10;;;19.00;55.30;;;;;;4944285;28;20051;-51
2022/05/22 07:52:53;;;;;;;7.13;2.30;;;19.00;54.90;;;;;;4944842;29;20052;-51
2022/05/22 07:55:25;;;;;;;4.75;2.40;;;19.20;54.90;;;;;;4943003;28;20507;-49
2022/05/22 07:57:55;;;;;;;10.13;2.60;;;19.20;54.70;;;;;;4943155;28;20055;-50
2022/05/22 08:00:28;;;;;;;6.78;2.10;;;19.30;54.60;;;;;;4942742;28;20058;-46
2022/05/22 08:02:59;;;;;;;7.28;2.42;;;19.30;54.50;;;;;;4941032;28;20059;-50
2022/05/22 08:05:30;;;;;;;5.75;2.00;;;19.40;54.20;;;;;;4944543;28;20090;-46
2022/05/22 08:07:58;;;;;;;7.25;2.15;;;19.50;53.90;;;;;;4941154;28;20055;-48
2022/05/22 08:13:13;;;;;;;3.95;1.63;;;19.70;53.40;;;;;;4945537;29;20507;-45
2022/05/22 08:15:43;;;;;;;8.00;2.03;;;19.80;52.70;;;;;;4944633;28;20044;-48
2022/05/22 08:18:13;;;;;;;7.63;1.85;;;19.90;52.30;;;;;;4941472;28;20117;-48
2022/05/22 08:20:47;;;;;;;4.95;2.20;;;19.90;51.60;;;;;;4943189;28;20889;-46
2022/05/22 08:23:18;;;;;;;12.27;3.55;;;20.00;51.40;;;;;;4944960;28;20055;-46
2022/05/22 08:25:47;;;;;;;5.88;2.35;;;20.10;51.10;;;;;;4943811;28;20059;-48
2022/05/22 08:28:14;;;;;;;7.72;2.50;;;20.20;51.10;;;;;;4941712;28;20055;-50
2022/05/22 08:30:42;;;;;;;7.90;2.20;;;20.30;50.70;;;;;;4938534;28;20058;-53
2022/05/22 08:33:10;;;;;;;10.98;2.63;;;20.30;49.00;;;;;;4944689;28;20051;-49
2022/05/22 08:35:40;;;;;;;5.05;2.00;;;20.40;50.10;;;;;;4944460;28;20602;-47
2022/05/22 08:38:10;;;;;;;8.95;2.22;;;20.50;50.40;;;;;;4945386;28;21234;-52
2022/05/22 08:40:47;;;;;;;8.38;2.42;;;20.60;50.70;;;;;;4942069;29;20051;-49
2022/05/22 08:43:17;;;;;;;10.40;2.50;;;20.70;49.10;;;;;;4945140;28;20063;-49
2022/05/22 08:45:46;;;;;;;9.65;2.55;;;20.70;48.20;;;;;;4945887;28;20074;-47
2022/05/22 08:48:20;;;;;;;9.40;2.33;;;20.80;47.70;;;;;;4940104;28;20557;-49
2022/05/22 08:50:49;;;;;;;7.88;2.53;;;20.80;48.40;;;;;;4943639;28;20055;-52
2022/05/22 08:53:24;;;;;;;7.93;2.15;;;20.80;48.00;;;;;;4941602;28;20066;-50
2022/05/22 08:58:58;;;;;;;6.82;1.85;;;20.70;45.50;;;;;;4948085;28;20066;-48
2022/05/22 09:01:44;;;;;;;7.88;1.92;;;20.80;46.40;;;;;;4945185;28;20055;-51
2022/05/22 09:04:37;;;;;;;5.22;1.85;;;20.80;45.90;;;;;;4943388;28;21566;-49
2022/05/22 09:07:18;;;;;;;11.57;1.67;;;20.80;45.30;;;;;;4935849;28;20487;-51
2022/05/22 09:09:49;;;;;;;7.43;2.00;;;20.80;45.00;;;;;;4943203;29;21281;-47
2022/05/22 09:12:47;;;;;;;3.58;1.38;;;20.90;45.70;;;;;;4942944;28;20488;-46
2022/05/22 09:15:19;;;;;;;8.93;2.10;;;20.90;45.80;;;;;;4939622;28;20055;-51
2022/05/22 09:17:59;;;;;;;8.30;2.20;;;20.90;44.50;;;;;;4940497;28;20077;-50
2022/05/22 09:20:40;;;;;;;4.40;1.25;;;21.00;44.60;;;;;;4944797;28;20055;-49
2022/05/22 09:23:25;;;;;;;5.90;1.98;;;21.00;45.00;;;;;;4942274;28;20055;-51
2022/05/22 09:26:00;;;;;;;5.90;1.80;;;21.10;44.80;;;;;;4944727;28;20415;-49
2022/05/22 09:28:39;;;;;;;6.10;1.50;;;21.10;44.90;;;;;;4941841;28;20054;-47
2022/05/22 09:31:17;;;;;;;4.70;1.42;;;21.20;45.10;;;;;;4943322;28;20411;-45
2022/05/22 09:33:52;;;;;;;4.65;1.60;;;21.20;45.10;;;;;;4943300;28;20066;-50
2022/05/22 09:36:28;;;;;;;4.50;1.55;;;21.30;45.20;;;;;;4944136;29;20415;-48
2022/05/22 09:39:08;;;;;;;5.20;1.42;;;21.40;45.60;;;;;;4935730;28;20545;-48
2022/05/22 09:41:54;;;;;;;5.05;1.50;;;21.50;44.60;;;;;;4943294;28;20059;-50
2022/05/22 09:44:45;;;;;;;6.88;1.60;;;21.60;44.90;;;;;;4944562;28;20065;-49
2022/05/22 09:47:35;;;;;;;4.72;1.38;;;21.60;44.90;;;;;;4937912;28;20051;-48
2022/05/22 09:50:20;;;;;;;4.75;1.50;;;21.70;44.60;;;;;;4941789;28;20400;-47
2022/05/22 09:52:57;;;;;;;5.93;1.30;;;21.80;43.80;;;;;;4942635;28;20059;-48
2022/05/22 09:55:32;;;;;;;5.70;1.40;;;21.80;44.20;;;;;;4940261;28;20055;-48
2022/05/22 09:58:24;;;;;;;5.88;1.52;;;21.90;44.40;;;;;;4939277;28;20059;-47
2022/05/22 10:00:58;;;;;;;7.80;2.58;;;21.90;43.90;;;;;;4938781;28;20085;-49
2022/05/22 10:03:34;;;;;;;3.78;1.65;;;22.00;44.10;;;;;;4937072;28;20110;-49
2022/05/22 10:06:12;;;;;;;7.65;1.23;;;22.00;42.90;;;;;;4943362;28;20055;-48
2022/05/22 10:08:49;;;;;;;4.55;1.00;;;22.00;43.10;;;;;;4938709;28;20054;-48
2022/05/22 10:11:25;;;;;;;6.30;1.52;;;22.00;42.40;;;;;;4941401;28;20070;-48
2022/05/22 10:14:10;;;;;;;4.82;1.50;;;22.00;42.90;;;;;;4940134;28;20130;-49
2022/05/22 10:16:50;;;;;;;4.85;1.55;;;22.00;42.00;;;;;;4936405;28;20054;-46
2022/05/22 10:19:30;;;;;;;4.57;1.30;;;22.10;42.40;;;;;;4934882;28;20063;-49
2022/05/22 10:22:07;;;;;;;7.30;1.83;;;22.10;41.80;;;;;;4939906;28;20055;-49
2022/05/22 10:24:55;;;;;;;7.25;1.80;;;22.10;42.00;;;;;;4940330;28;20059;-50
2022/05/22 10:27:48;;;;;;;5.57;1.52;;;22.10;42.60;;;;;;4940335;28;20374;-47
2022/05/22 10:30:21;;;;;;;7.75;1.23;;;22.20;43.20;;;;;;4939564;28;20071;-50
2022/05/22 10:32:54;;;;;;;4.55;1.70;;;22.20;43.00;;;;;;4938749;28;20070;-49
2022/05/22 10:35:27;;;;;;;5.60;1.60;;;22.20;43.30;;;;;;4940889;28;20058;-47
2022/05/22 10:38:00;;;;;;;2.92;1.10;;;22.20;42.70;;;;;;4940414;28;20502;-49
2022/05/22 10:42:44;;;;;;;3.50;1.20;;;22.30;42.70;;;;;;4941103;28;20078;-49
2022/05/22 10:43:16;;;;;;;4.88;1.30;;;22.30;43.60;;;;;;4940677;28;20055;-48
2022/05/22 10:45:45;;;;;;;10.35;2.30;;;22.30;41.50;;;;;;4942277;28;20511;-48
2022/05/22 10:48:19;;;;;;;5.20;1.63;;;22.30;41.90;;;;;;4941216;28;20074;-48
2022/05/22 10:50:54;;;;;;;;;;;22.20;41.80;;;;;;4941296;28;20074;-49
2022/05/22 10:53:35;;;;;;;7.72;1.88;;;22.30;42.70;;;;;;4940567;28;19927;-47
2022/05/22 10:56:06;;;;;;;2.20;1.17;;;22.30;42.00;;;;;;4942590;28;20051;-47
2022/05/22 10:58:36;;;;;;;6.03;1.70;;;22.30;41.90;;;;;;4941642;28;20047;-48
2022/05/22 11:01:16;;;;;;;4.82;1.80;;;22.30;41.10;;;;;;4942140;28;20395;-46
2022/05/22 11:03:44;;;;;;;6.10;1.55;;;22.30;41.10;;;;;;4940427;28;20078;-46
2022/05/22 11:06:18;;;;;;;6.10;1.60;;;22.30;40.80;;;;;;4942213;28;20063;-51
2022/05/22 11:08:49;;;;;;;4.03;1.38;;;22.30;40.30;;;;;;4941560;28;20047;-50
2022/05/22 11:11:19;;;;;;;3.25;1.10;;;22.30;41.50;;;;;;4943636;28;20059;-52
2022/05/22 11:13:47;;;;;;;2.05;0.98;;;22.40;41.70;;;;;;4946383;28;20066;-50
2022/05/22 11:16:19;;;;;;;5.78;1.30;;;22.40;41.50;;;;;;4944007;28;20058;-50
2022/05/22 11:18:46;;;;;;;3.85;1.42;;;22.40;41.00;;;;;;4944832;28;20051;-48
2022/05/22 11:21:35;;;;;;;8.57;1.40;;;22.50;40.60;;;;;;4942286;28;20116;-48
2022/05/22 11:24:14;;;;;;;3.72;1.35;;;22.50;40.10;;;;;;4943601;28;20058;-45
2022/05/22 11:26:56;;;;;;;5.03;1.40;;;22.50;40.20;;;;;;4944752;28;20051;-45
2022/05/22 11:29:55;;;;;;;3.10;1.50;;;22.50;40.70;;;;;;4942123;28;20070;-48
2022/05/22 11:32:39;;;;;;;7.00;1.60;;;22.50;40.10;;;;;;4941380;28;20062;-50
2022/05/22 11:35:34;;;;;;;4.30;1.40;;;22.50;40.50;;;;;;4945988;28;20062;-48
2022/05/22 11:38:30;;;;;;;4.03;1.27;;;22.60;40.90;;;;;;4941249;28;20415;-49
2022/05/22 11:41:09;;;;;;;3.60;1.33;;;22.60;41.10;;;;;;4946614;28;20415;-47
2022/05/22 11:44:00;;;;;;;4.95;1.30;;;22.70;41.30;;;;;;4946102;28;20514;-51
2022/05/22 11:46:40;;;;;;;5.53;1.30;;;22.70;41.30;;;;;;4945593;28;20057;-46
2022/05/22 11:49:23;;;;;;;5.13;1.65;;;22.80;41.30;;;;;;4943088;28;20574;-48
2022/05/22 11:52:08;;;;;;;7.88;1.55;;;22.80;39.30;;;;;;4943569;28;20051;-50
2022/05/22 11:54:57;;;;;;;5.20;1.67;;;22.80;40.30;;;;;;4947065;28;20058;-51
2022/05/22 11:57:34;;;;;;;6.00;1.25;;;22.80;39.30;;;;;;4944163;28;20062;-47
2022/05/22 12:00:14;;;;;;;9.18;1.98;;;22.80;40.10;;;;;;4944622;28;20518;-49
2022/05/22 12:03:16;;;;;;;6.75;1.75;;;22.80;40.00;;;;;;4945740;28;20420;-45
2022/05/22 12:05:58;;;;;;;4.35;1.55;;;22.80;38.80;;;;;;4947034;28;20747;-47
2022/05/22 12:09:02;;;;;;;4.13;1.52;;;22.90;38.80;;;;;;4942033;28;20051;-49
2022/05/22 12:11:35;;;;;;;3.47;1.73;;;22.80;38.60;;;;;;4943018;28;20055;-48
2022/05/22 12:14:22;;;;;;;5.38;2.38;;;22.80;39.90;;;;;;4945835;28;20054;-48
2022/05/22 12:16:57;;;;;;;6.18;1.63;;;22.80;38.90;;;;;;4944218;28;20055;-50
2022/05/22 12:19:34;;;;;;;6.18;1.67;;;22.90;39.30;;;;;;4942420;28;20047;-49
2022/05/22 12:22:12;;;;;;;16.17;1.35;;;22.90;38.80;;;;;;4943370;28;20514;-48
2022/05/22 12:24:47;;;;;;;3.85;1.13;;;23.00;39.50;;;;;;4945030;28;20063;-49
2022/05/22 12:27:23;;;;;;;5.78;1.40;;;23.10;39.50;;;;;;4943848;28;20143;-50
2022/05/22 12:30:06;;;;;;;4.68;1.65;;;23.10;40.00;;;;;;4944879;28;20431;-48
2022/05/22 12:32:40;;;;;;;4.35;1.65;;;23.10;39.50;;;;;;4943547;28;20065;-48
2022/05/22 12:35:08;;;;;;;4.68;1.10;;;23.20;39.10;;;;;;4943062;28;20059;-49
2022/05/22 12:37:43;;;;;;;4.50;1.58;;;23.20;39.40;;;;;;4945112;28;20051;-46
2022/05/22 12:40:33;;;;;;;5.03;1.52;;;23.20;39.00;;;;;;4943844;28;20436;-52
2022/05/22 12:43:03;;;;;;;4.97;1.45;;;23.30;39.10;;;;;;4944664;28;20677;-50
2022/05/22 12:45:32;;;;;;;3.47;1.38;;;23.30;39.10;;;;;;4942858;28;20428;-47
2022/05/22 12:48:11;;;;;;;3.03;1.45;;;23.30;39.70;;;;;;4937565;28;20047;-48
2022/05/22 12:50:46;;;;;;;3.20;1.25;;;23.40;39.30;;;;;;4934546;28;20613;-48
2022/05/22 12:53:28;;;;;;;3.78;1.33;;;23.50;39.40;;;;;;4943964;29;20081;-47
2022/05/22 12:55:56;;;;;;;2.33;1.10;;;23.50;39.50;;;;;;4944422;28;20070;-48
2022/05/22 12:58:36;;;;;;;4.63;1.15;;;23.50;39.50;;;;;;4938295;28;20058;-51
2022/05/22 13:01:22;;;;;;;3.13;1.27;;;23.50;38.80;;;;;;4928660;28;20055;-49
2022/05/22 13:03:52;;;;;;;5.32;1.60;;;23.60;39.10;;;;;;4928584;28;20426;-49
2022/05/22 13:06:22;;;;;;;3.47;1.20;;;23.60;39.30;;;;;;4935247;28;20408;-47
2022/05/22 13:08:59;;;;;;;4.10;1.48;;;23.60;39.80;;;;;;4927523;28;20058;-49
2022/05/22 13:11:38;;;;;;;4.22;1.30;;;23.60;38.20;;;;;;4935103;28;20051;-47
2022/05/22 13:14:06;;;;;;;4.97;1.70;;;23.60;37.60;;;;;;4936217;28;20051;-46
2022/05/22 13:16:47;;;;;;;5.72;1.60;;;23.60;37.90;;;;;;4942400;28;20063;-48
2022/05/22 13:19:20;;;;;;;8.85;1.80;;;23.60;37.40;;;;;;4936111;28;21157;-50
2022/05/22 13:21:48;;;;;;;6.75;1.83;;;23.60;37.80;;;;;;4940898;28;20054;-50
2022/05/22 13:24:26;;;;;;;3.58;1.60;;;23.60;37.60;;;;;;4942110;28;20071;-50
2022/05/22 13:27:03;;;;;;;6.05;1.55;;;23.60;38.70;;;;;;4939483;28;20051;-49